Aidablu — IBWX — position and weather

sailwx.info

Track history (hours):
 
Tides and Currents Weather Stations Pressure Air Temp Water Temp Dewpoint Dewpoint Depression Visibility Wind Speed Wind Dir Waves Ship Positions

Aidablu

Last reported at 2016-Jun-27 20:33 UTC. Time now 2016-Jun-28 17:02 UTC.
Position N 40°46' E 013°39'.

Length 252 m; draft 7.3 m.

Type: Ship. MMSI: 247282500.

Date/timePositionNaut miles runAvg speedWind from/ knotsBaromVisibWave heightAir tempDewpointWater temp
2016-Jun-27 20:33N 40°46' E 013°39'1515.1
2016-Jun-27 19:33N 40°39' E 013°57'1313.1
2016-Jun-27 18:33N 40°45' E 014°12'6 1.1
2016-Jun-27 13:29N 40°50' E 014°15'0 0.0
2016-Jun-27 12:17N 40°50' E 014°15'0 0.0
2016-Jun-27 11:23N 40°50' E 014°15'0 0.0
2016-Jun-27 10:16N 40°50' E 014°15'4 0.7
2016-Jun-27 04:33N 40°46' E 014°17'1616.0
2016-Jun-27 03:33N 40°32' E 014°08'1717.1
2016-Jun-27 02:33N 40°16' E 014°03'1717.0
2016-Jun-27 01:33N 39°59' E 013°58'1717.1
2016-Jun-27 00:33N 39°42' E 013°53'1717.0
2016-Jun-26 23:33N 39°26' E 013°48'1717.0
2016-Jun-26 22:34N 39°09' E 013°44'1817.5
2016-Jun-26 21:33N 38°52' E 013°38'1817.6
2016-Jun-26 20:33N 38°35' E 013°33'1817.6
2016-Jun-26 19:33N 38°18' E 013°29'1111.4
2016-Jun-26 18:33N 38°07' E 013°24'1 1.0
2016-Jun-26 17:33N 38°08' E 013°24'2 1.5
2016-Jun-26 16:31N 38°08' E 013°22'0 0.0
2016-Jun-26 15:33N 38°08' E 013°22'0 0.0
2016-Jun-26 14:33N 38°08' E 013°22'0 0.0
2016-Jun-26 13:32N 38°08' E 013°22'0 0.0
2016-Jun-26 12:32N 38°08' E 013°22'0 0.0
2016-Jun-26 11:31N 38°08' E 013°22'0 0.0
2016-Jun-26 10:31N 38°08' E 013°22'0 0.0
2016-Jun-26 09:34N 38°08' E 013°22'0 0.0
2016-Jun-26 08:33N 38°08' E 013°22'0 0.0
2016-Jun-26 07:33N 38°08' E 013°22'1 1.5
2016-Jun-26 06:33N 38°08' E 013°24'1312.7
2016-Jun-26 05:33N 38°20' E 013°18'1413.7
2016-Jun-26 04:33N 38°28' E 013°04'1413.8
2016-Jun-26 03:34N 38°38' E 012°51'245 8.6
2016-Jun-24 23:09N 41°15' E 008°46'1114.2
2016-Jun-24 22:23N 41°14' E 008°31'1213.9
2016-Jun-24 21:33N 41°12' E 008°16'1413.7
2016-Jun-24 20:32N 41°05' E 007°60'1313.5
2016-Jun-24 19:33N 40°59' E 007°44'3313.7
2016-Jun-24 17:09N 40°43' E 007°06'913.9
2016-Jun-24 16:31N 40°38' E 006°56'5713.9
2016-Jun-24 12:24N 40°11' E 005°50'2613.6
2016-Jun-24 10:27N 39°58' E 005°20'1613.0
2016-Jun-24 09:14N 39°51' E 005°01'12 6.7
2016-Jun-24 07:31N 39°45' E 004°48'22 6.7
2016-Jun-24 04:13N 39°34' E 004°23'5 7.2
2016-Jun-24 03:31N 39°32' E 004°17'1311.7
2016-Jun-24 02:25N 39°26' E 004°02'1214.2
2016-Jun-24 01:33N 39°21' E 003°48'1414.1
2016-Jun-24 00:33N 39°14' E 003°32'1313.3
2016-Jun-23 23:33N 39°13' E 003°15'1313.4
2016-Jun-23 22:33N 39°15' E 002°58'1313.2
2016-Jun-23 21:33N 39°22' E 002°43'1212.0
2016-Jun-23 20:33N 39°33' E 002°38'1 0.6
2016-Jun-23 19:33N 39°33' E 002°38'0 0.0
2016-Jun-23 18:32N 39°33' E 002°38'0 0.0
2016-Jun-23 17:32N 39°33' E 002°38'0 0.0
2016-Jun-23 16:31N 39°33' E 002°38'0 0.0
2016-Jun-23 15:31N 39°33' E 002°38'0 0.0
2016-Jun-23 14:31N 39°33' E 002°38'0 0.0
2016-Jun-23 13:33N 39°33' E 002°38'0 0.0
2016-Jun-23 12:33N 39°33' E 002°38'0 0.0
2016-Jun-23 11:23N 39°33' E 002°38'0 0.0
2016-Jun-23 10:32N 39°33' E 002°38'0 0.0
2016-Jun-23 09:31N 39°33' E 002°38'0 0.0
2016-Jun-23 08:28N 39°33' E 002°38'0 0.0
2016-Jun-23 07:28N 39°33' E 002°38'0 0.0
2016-Jun-23 05:33N 39°33' E 002°38'0 0.0
2016-Jun-23 04:32N 39°33' E 002°38'0 0.0
2016-Jun-23 03:32N 39°33' E 002°38'0 0.0
2016-Jun-23 02:31N 39°33' E 002°38'4 3.7
2016-Jun-23 01:33N 39°30' E 002°36'1110.7
2016-Jun-23 00:33N 39°29' E 002°22'1212.2
2016-Jun-22 23:33N 39°40' E 002°14'1313.2
2016-Jun-22 22:33N 39°53' E 002°13'1413.7
2016-Jun-22 21:33N 40°07' E 002°13'1414.0
2016-Jun-22 20:33N 40°20' E 002°13'1414.0
2016-Jun-22 19:34N 40°34' E 002°12'1313.3
2016-Jun-22 18:33N 40°48' E 002°12'1413.6
2016-Jun-22 17:34N 41°01' E 002°11'1413.7
2016-Jun-22 16:33N 41°15' E 002°11'6 6.1
2016-Jun-22 15:33N 41°21' E 002°11'0 0.0
2016-Jun-22 14:32N 41°21' E 002°11'0 0.0
2016-Jun-22 13:32N 41°21' E 002°11'0 0.0
2016-Jun-22 12:31N 41°21' E 002°11'0 0.0
2016-Jun-22 11:31N 41°21' E 002°11'0 0.0
2016-Jun-22 10:34N 41°21' E 002°11'0 0.0
2016-Jun-22 09:33N 41°21' E 002°11'0 0.0
2016-Jun-22 08:24N 41°21' E 002°11'0 0.0
2016-Jun-22 07:32N 41°21' E 002°11'0 0.0
2016-Jun-22 06:32N 41°21' E 002°11'3 1.3
2016-Jun-22 04:33N 41°19' E 002°10'6 6.5
2016-Jun-22 03:33N 41°17' E 002°19'1211.2
2016-Jun-22 02:29N 41°18' E 002°35'1313.6
2016-Jun-22 01:33N 41°20' E 002°51'1313.4
2016-Jun-22 00:33N 41°21' E 003°09'1413.6
2016-Jun-21 23:33N 41°23' E 003°27'1414.1
2016-Jun-21 22:33N 41°24' E 003°46'1414.1
2016-Jun-21 21:33N 41°26' E 004°05'4013.4
2016-Jun-21 18:33N 41°30' E 004°58'41 6.6
2016-Jun-21 12:21N 41°34' E 005°53'6 6.8
2016-Jun-21 11:25N 41°35' E 006°01'70 7.0
2016-Jun-21 01:26N 41°42' E 007°34'22 7.2
2016-Jun-20 22:21N 41°45' E 008°04'96 4.1
2016-Jun-19 23:11N 43°05' E 009°15'913.8
2016-Jun-19 22:33N 43°09' E 009°26'1212.2
2016-Jun-19 21:33N 43°14' E 009°41'7 6.8
2016-Jun-19 20:33N 43°17' E 009°50'7 6.8
2016-Jun-19 19:33N 43°19' E 009°58'7 6.8
2016-Jun-19 18:33N 43°24' E 010°05'7 7.1
2016-Jun-19 17:33N 43°29' E 010°11'6 6.3
2016-Jun-19 16:33N 43°33' E 010°18'0 0.0
2016-Jun-19 15:32N 43°33' E 010°18'0 0.0
2016-Jun-19 14:32N 43°33' E 010°18'0 0.0
2016-Jun-19 13:31N 43°33' E 010°18'0 0.0
2016-Jun-19 12:31N 43°33' E 010°18'0 0.0
2016-Jun-19 11:33N 43°33' E 010°18'0 0.0
2016-Jun-19 10:30N 43°33' E 010°18'0 0.0
2016-Jun-19 09:33N 43°33' E 010°18'0 0.0
2016-Jun-19 08:32N 43°33' E 010°18'0 0.0
2016-Jun-19 07:32N 43°33' E 010°18'0 0.0
2016-Jun-19 06:31N 43°33' E 010°18'0 0.1
2016-Jun-19 05:33N 43°33' E 010°18'5 5.0
2016-Jun-19 04:33N 43°30' E 010°13'1313.0
2016-Jun-19 03:33N 43°17' E 010°09'1313.5
2016-Jun-19 02:33N 43°04' E 010°06'3811.1
2016-Jun-18 23:06N 42°30' E 010°31'4512.6
2016-Jun-18 19:33N 42°07' E 011°23'  
Track history (hours):
 
Tides and Currents Weather Stations Pressure Air Temp Water Temp Dewpoint Dewpoint Depression Visibility Wind Speed Wind Dir Waves Ship Positions

Aidablu

Last reported at 2016-Jun-27 20:33 UTC. Time now 2016-Jun-28 17:02 UTC.
Position N 40°46' E 013°39'.

Length 252 m; draft 7.3 m.

Type: Ship. MMSI: 247282500.

Date/timePositionNaut miles runAvg speedWind from/ knotsBaromVisibWave heightAir tempDewpointWater temp
2016-Jun-27 20:33N 40°46' E 013°39'1515.1
2016-Jun-27 19:33N 40°39' E 013°57'1313.1
2016-Jun-27 18:33N 40°45' E 014°12'6 1.1
2016-Jun-27 13:29N 40°50' E 014°15'0 0.0
2016-Jun-27 12:17N 40°50' E 014°15'0 0.0
2016-Jun-27 11:23N 40°50' E 014°15'0 0.0
2016-Jun-27 10:16N 40°50' E 014°15'4 0.7
2016-Jun-27 04:33N 40°46' E 014°17'1616.0
2016-Jun-27 03:33N 40°32' E 014°08'1717.1
2016-Jun-27 02:33N 40°16' E 014°03'1717.0
2016-Jun-27 01:33N 39°59' E 013°58'1717.1
2016-Jun-27 00:33N 39°42' E 013°53'1717.0
2016-Jun-26 23:33N 39°26' E 013°48'1717.0
2016-Jun-26 22:34N 39°09' E 013°44'1817.5
2016-Jun-26 21:33N 38°52' E 013°38'1817.6
2016-Jun-26 20:33N 38°35' E 013°33'1817.6
2016-Jun-26 19:33N 38°18' E 013°29'1111.4
2016-Jun-26 18:33N 38°07' E 013°24'1 1.0
2016-Jun-26 17:33N 38°08' E 013°24'2 1.5
2016-Jun-26 16:31N 38°08' E 013°22'0 0.0
2016-Jun-26 15:33N 38°08' E 013°22'0 0.0
2016-Jun-26 14:33N 38°08' E 013°22'0 0.0
2016-Jun-26 13:32N 38°08' E 013°22'0 0.0
2016-Jun-26 12:32N 38°08' E 013°22'0 0.0
2016-Jun-26 11:31N 38°08' E 013°22'0 0.0
2016-Jun-26 10:31N 38°08' E 013°22'0 0.0
2016-Jun-26 09:34N 38°08' E 013°22'0 0.0
2016-Jun-26 08:33N 38°08' E 013°22'0 0.0
2016-Jun-26 07:33N 38°08' E 013°22'1 1.5
2016-Jun-26 06:33N 38°08' E 013°24'1312.7
2016-Jun-26 05:33N 38°20' E 013°18'1413.7
2016-Jun-26 04:33N 38°28' E 013°04'1413.8
2016-Jun-26 03:34N 38°38' E 012°51'245 8.6
2016-Jun-24 23:09N 41°15' E 008°46'1114.2
2016-Jun-24 22:23N 41°14' E 008°31'1213.9
2016-Jun-24 21:33N 41°12' E 008°16'1413.7
2016-Jun-24 20:32N 41°05' E 007°60'1313.5
2016-Jun-24 19:33N 40°59' E 007°44'3313.7
2016-Jun-24 17:09N 40°43' E 007°06'913.9
2016-Jun-24 16:31N 40°38' E 006°56'5713.9
2016-Jun-24 12:24N 40°11' E 005°50'2613.6
2016-Jun-24 10:27N 39°58' E 005°20'1613.0
2016-Jun-24 09:14N 39°51' E 005°01'12 6.7
2016-Jun-24 07:31N 39°45' E 004°48'22 6.7
2016-Jun-24 04:13N 39°34' E 004°23'5 7.2
2016-Jun-24 03:31N 39°32' E 004°17'1311.7
2016-Jun-24 02:25N 39°26' E 004°02'1214.2
2016-Jun-24 01:33N 39°21' E 003°48'1414.1
2016-Jun-24 00:33N 39°14' E 003°32'1313.3
2016-Jun-23 23:33N 39°13' E 003°15'1313.4
2016-Jun-23 22:33N 39°15' E 002°58'1313.2
2016-Jun-23 21:33N 39°22' E 002°43'1212.0
2016-Jun-23 20:33N 39°33' E 002°38'1 0.6
2016-Jun-23 19:33N 39°33' E 002°38'0 0.0
2016-Jun-23 18:32N 39°33' E 002°38'0 0.0
2016-Jun-23 17:32N 39°33' E 002°38'0 0.0
2016-Jun-23 16:31N 39°33' E 002°38'0 0.0
2016-Jun-23 15:31N 39°33' E 002°38'0 0.0
2016-Jun-23 14:31N 39°33' E 002°38'0 0.0
2016-Jun-23 13:33N 39°33' E 002°38'0 0.0
2016-Jun-23 12:33N 39°33' E 002°38'0 0.0
2016-Jun-23 11:23N 39°33' E 002°38'0 0.0
2016-Jun-23 10:32N 39°33' E 002°38'0 0.0
2016-Jun-23 09:31N 39°33' E 002°38'0 0.0
2016-Jun-23 08:28N 39°33' E 002°38'0 0.0
2016-Jun-23 07:28N 39°33' E 002°38'0 0.0
2016-Jun-23 05:33N 39°33' E 002°38'0 0.0
2016-Jun-23 04:32N 39°33' E 002°38'0 0.0
2016-Jun-23 03:32N 39°33' E 002°38'0 0.0
2016-Jun-23 02:31N 39°33' E 002°38'4 3.7
2016-Jun-23 01:33N 39°30' E 002°36'1110.7
2016-Jun-23 00:33N 39°29' E 002°22'1212.2
2016-Jun-22 23:33N 39°40' E 002°14'1313.2
2016-Jun-22 22:33N 39°53' E 002°13'1413.7
2016-Jun-22 21:33N 40°07' E 002°13'1414.0
2016-Jun-22 20:33N 40°20' E 002°13'1414.0
2016-Jun-22 19:34N 40°34' E 002°12'1313.3
2016-Jun-22 18:33N 40°48' E 002°12'1413.6
2016-Jun-22 17:34N 41°01' E 002°11'1413.7
2016-Jun-22 16:33N 41°15' E 002°11'6 6.1
2016-Jun-22 15:33N 41°21' E 002°11'0 0.0
2016-Jun-22 14:32N 41°21' E 002°11'0 0.0
2016-Jun-22 13:32N 41°21' E 002°11'0 0.0
2016-Jun-22 12:31N 41°21' E 002°11'0 0.0
2016-Jun-22 11:31N 41°21' E 002°11'0 0.0
2016-Jun-22 10:34N 41°21' E 002°11'0 0.0
2016-Jun-22 09:33N 41°21' E 002°11'0 0.0
2016-Jun-22 08:24N 41°21' E 002°11'0 0.0
2016-Jun-22 07:32N 41°21' E 002°11'0 0.0
2016-Jun-22 06:32N 41°21' E 002°11'3 1.3
2016-Jun-22 04:33N 41°19' E 002°10'6 6.5
2016-Jun-22 03:33N 41°17' E 002°19'1211.2
2016-Jun-22 02:29N 41°18' E 002°35'1313.6
2016-Jun-22 01:33N 41°20' E 002°51'1313.4
2016-Jun-22 00:33N 41°21' E 003°09'1413.6
2016-Jun-21 23:33N 41°23' E 003°27'1414.1
2016-Jun-21 22:33N 41°24' E 003°46'1414.1
2016-Jun-21 21:33N 41°26' E 004°05'4013.4
2016-Jun-21 18:33N 41°30' E 004°58'41 6.6
2016-Jun-21 12:21N 41°34' E 005°53'6 6.8
2016-Jun-21 11:25N 41°35' E 006°01'70 7.0
2016-Jun-21 01:26N 41°42' E 007°34'22 7.2
2016-Jun-20 22:21N 41°45' E 008°04'96 4.1
2016-Jun-19 23:11N 43°05' E 009°15'913.8
2016-Jun-19 22:33N 43°09' E 009°26'1212.2
2016-Jun-19 21:33N 43°14' E 009°41'7 6.8
2016-Jun-19 20:33N 43°17' E 009°50'7 6.8
2016-Jun-19 19:33N 43°19' E 009°58'7 6.8
2016-Jun-19 18:33N 43°24' E 010°05'7 7.1
2016-Jun-19 17:33N 43°29' E 010°11'6 6.3
2016-Jun-19 16:33N 43°33' E 010°18'0 0.0
2016-Jun-19 15:32N 43°33' E 010°18'0 0.0
2016-Jun-19 14:32N 43°33' E 010°18'0 0.0
2016-Jun-19 13:31N 43°33' E 010°18'0 0.0
2016-Jun-19 12:31N 43°33' E 010°18'0 0.0
2016-Jun-19 11:33N 43°33' E 010°18'0 0.0
2016-Jun-19 10:30N 43°33' E 010°18'0 0.0
2016-Jun-19 09:33N 43°33' E 010°18'0 0.0
2016-Jun-19 08:32N 43°33' E 010°18'0 0.0
2016-Jun-19 07:32N 43°33' E 010°18'0 0.0
2016-Jun-19 06:31N 43°33' E 010°18'0 0.1
2016-Jun-19 05:33N 43°33' E 010°18'5 5.0
2016-Jun-19 04:33N 43°30' E 010°13'1313.0
2016-Jun-19 03:33N 43°17' E 010°09'1313.5
2016-Jun-19 02:33N 43°04' E 010°06'3811.1
2016-Jun-18 23:06N 42°30' E 010°31'4512.6
2016-Jun-18 19:33N 42°07' E 011°23'  

Dump ship's entire track history